createdAt,value
2022-11-08T00:00:54.821Z,8.48
2022-11-08T00:03:21.527Z,8.53
2022-11-08T00:06:06.647Z,8.56
2022-11-08T00:08:51.998Z,8.63
2022-11-08T00:11:37.159Z,8.62
2022-11-08T00:14:03.780Z,8.61
2022-11-08T00:16:30.352Z,8.66
2022-11-08T00:18:57.291Z,8.69
2022-11-08T00:21:23.893Z,8.67
2022-11-08T00:23:50.497Z,8.66
2022-11-08T00:26:17.110Z,8.64
2022-11-08T00:28:43.682Z,8.64
2022-11-08T00:31:10.270Z,8.63
2022-11-08T00:33:37.450Z,8.66
2022-11-08T00:36:04.550Z,8.70
2022-11-08T00:38:31.144Z,8.73
2022-11-08T00:40:57.768Z,8.70
2022-11-08T00:43:24.398Z,8.67
2022-11-08T00:45:50.992Z,8.68
2022-11-08T00:48:17.870Z,8.68
2022-11-08T00:50:44.655Z,8.68
2022-11-08T00:53:11.271Z,8.67
2022-11-08T00:55:37.894Z,8.69
2022-11-08T00:58:04.541Z,8.73
2022-11-08T01:00:31.182Z,8.74
2022-11-08T01:03:16.079Z,8.74
2022-11-08T01:05:42.702Z,8.78
2022-11-08T01:08:11.115Z,8.84
2022-11-08T01:10:40.477Z,8.88
2022-11-08T01:13:07.093Z,8.88
2022-11-08T01:15:38.575Z,8.87
2022-11-08T01:18:05.271Z,8.83
2022-11-08T01:20:32.589Z,8.81
2022-11-08T01:22:59.251Z,8.84
2022-11-08T01:25:26.014Z,8.81
2022-11-08T01:27:52.604Z,8.84
2022-11-08T01:30:19.306Z,8.81
2022-11-08T01:32:45.915Z,8.81
2022-11-08T01:35:12.510Z,8.79
2022-11-08T01:37:39.083Z,8.79
2022-11-08T01:40:06.331Z,8.81
2022-11-08T01:42:33.540Z,8.82
2022-11-08T01:45:01.180Z,8.82
2022-11-08T01:47:27.972Z,8.77
2022-11-08T01:50:03.306Z,8.76
2022-11-08T01:52:33.007Z,8.77
2022-11-08T01:55:07.626Z,8.73
2022-11-08T01:58:19.599Z,8.73
2022-11-08T02:00:46.707Z,8.70
2022-11-08T02:03:18.582Z,8.71
2022-11-08T02:05:46.139Z,8.70
2022-11-08T02:08:28.147Z,8.76
2022-11-08T02:10:54.940Z,8.71
2022-11-08T02:13:25.105Z,8.74
2022-11-08T02:15:52.532Z,8.72
2022-11-08T02:18:21.575Z,8.77
2022-11-08T02:20:54.207Z,8.81
2022-11-08T02:23:28.866Z,8.77
2022-11-08T02:25:55.682Z,8.80
2022-11-08T02:28:22.344Z,8.77
2022-11-08T02:30:48.948Z,8.76
2022-11-08T02:33:17.949Z,8.79
2022-11-08T02:35:48.623Z,8.81
2022-11-08T02:38:16.099Z,8.77
2022-11-08T02:40:51.300Z,8.82
2022-11-08T02:43:18.124Z,8.84
2022-11-08T02:45:45.266Z,8.86
2022-11-08T02:48:12.966Z,8.84
2022-11-08T02:50:40.106Z,8.82
2022-11-08T02:53:08.014Z,8.79
2022-11-08T02:55:35.549Z,8.76
2022-11-08T02:58:02.664Z,8.76
2022-11-08T03:00:30.079Z,8.73
2022-11-08T03:02:58.153Z,8.83
2022-11-08T03:05:26.450Z,8.85
2022-11-08T03:07:56.845Z,8.83
2022-11-08T03:10:25.083Z,8.83
2022-11-08T03:12:59.411Z,8.90
2022-11-08T03:15:26.940Z,8.90
2022-11-08T03:17:53.771Z,8.89
2022-11-08T03:20:20.368Z,8.87
2022-11-08T03:22:47.357Z,8.90
2022-11-08T03:25:14.225Z,8.90
2022-11-08T03:27:40.803Z,8.89
2022-11-08T03:30:08.081Z,8.94
2022-11-08T03:32:34.684Z,8.91
2022-11-08T03:35:01.301Z,8.89
2022-11-08T03:37:27.963Z,8.90
2022-11-08T03:39:54.592Z,8.88
2022-11-08T03:42:21.210Z,8.88
2022-11-08T03:44:47.804Z,8.85
2022-11-08T03:47:14.822Z,8.80
2022-11-08T03:49:41.589Z,8.73
2022-11-08T03:52:08.202Z,8.64
2022-11-08T03:54:34.821Z,8.64
2022-11-08T03:57:01.450Z,8.61
2022-11-08T03:59:28.023Z,8.64
2022-11-08T04:01:54.755Z,8.61
2022-11-08T04:04:21.475Z,8.60
2022-11-08T04:06:48.054Z,8.56
2022-11-08T04:09:19.008Z,8.57
2022-11-08T04:12:06.502Z,8.62
2022-11-08T04:14:51.884Z,8.56
2022-11-08T04:17:18.479Z,8.55
2022-11-08T04:20:03.362Z,8.54
2022-11-08T04:22:29.959Z,8.50
2022-11-08T04:24:56.536Z,8.47
2022-11-08T04:27:23.131Z,8.44
2022-11-08T04:29:49.769Z,8.44
2022-11-08T04:32:16.379Z,8.42
2022-11-08T04:34:42.943Z,8.42
2022-11-08T04:37:09.528Z,8.38
2022-11-08T04:39:36.121Z,8.35
2022-11-08T04:42:03.121Z,8.29
2022-11-08T04:44:29.714Z,8.29
2022-11-08T04:46:56.550Z,8.26
2022-11-08T04:49:23.095Z,8.30
2022-11-08T04:51:49.714Z,8.32
2022-11-08T04:54:16.271Z,8.32
2022-11-08T04:56:42.918Z,8.34
2022-11-08T04:59:12.015Z,8.34
2022-11-08T05:01:39.430Z,8.36
2022-11-08T05:04:06.138Z,8.37
2022-11-08T05:06:32.840Z,8.35
2022-11-08T05:08:59.946Z,8.37
2022-11-08T05:11:29.075Z,8.36
2022-11-08T05:13:56.852Z,8.41
2022-11-08T05:16:26.015Z,8.36
2022-11-08T05:18:53.216Z,8.37
2022-11-08T05:21:40.102Z,8.38
2022-11-08T05:24:08.687Z,8.43
2022-11-08T05:26:37.711Z,8.50
2022-11-08T05:29:05.591Z,8.45
2022-11-08T05:31:32.450Z,8.41
2022-11-08T05:34:00.732Z,8.42
2022-11-08T05:36:28.412Z,8.43
2022-11-08T05:38:56.086Z,8.45
2022-11-08T05:41:24.370Z,8.43
2022-11-08T05:43:53.365Z,8.44
2022-11-08T05:46:21.183Z,8.43
2022-11-08T05:48:48.853Z,8.44
2022-11-08T05:51:17.444Z,8.44
2022-11-08T05:53:44.454Z,8.47
2022-11-08T05:56:11.058Z,8.57
2022-11-08T05:58:37.748Z,8.62
2022-11-08T06:01:10.458Z,8.63
2022-11-08T06:03:37.540Z,8.65
2022-11-08T06:06:06.671Z,8.68
2022-11-08T06:08:33.378Z,8.72
2022-11-08T06:11:09.178Z,8.73
2022-11-08T06:13:35.875Z,8.70
2022-11-08T06:16:04.848Z,8.78
2022-11-08T06:18:32.554Z,8.81
2022-11-08T06:21:00.014Z,8.77
2022-11-08T06:23:27.480Z,8.75
2022-11-08T06:25:54.539Z,8.84
2022-11-08T06:28:21.222Z,8.78
2022-11-08T06:30:47.929Z,8.85
2022-11-08T06:33:14.805Z,8.85
2022-11-08T06:35:41.690Z,8.82
2022-11-08T06:38:09.645Z,8.75
2022-11-08T06:40:38.353Z,8.71
2022-11-08T06:43:05.552Z,8.76
2022-11-08T06:45:32.237Z,8.82
2022-11-08T06:48:01.271Z,8.92
2022-11-08T06:50:29.467Z,8.95
2022-11-08T06:53:01.565Z,9.00
2022-11-08T06:55:29.217Z,9.04
2022-11-08T06:57:56.307Z,9.05
2022-11-08T07:00:23.330Z,9.09
2022-11-08T07:02:54.458Z,9.14
2022-11-08T07:05:21.470Z,9.23
2022-11-08T07:07:52.041Z,9.22
2022-11-08T07:10:23.722Z,9.20
2022-11-08T07:12:58.835Z,9.17
2022-11-08T07:15:25.487Z,9.16
2022-11-08T07:17:52.182Z,9.18
2022-11-08T07:20:18.904Z,9.22
2022-11-08T07:22:45.543Z,9.29
2022-11-08T07:25:12.111Z,9.27
2022-11-08T07:27:38.710Z,9.28
2022-11-08T07:30:06.069Z,9.23
2022-11-08T07:32:32.637Z,9.32
2022-11-08T07:34:59.269Z,9.31
2022-11-08T07:37:25.823Z,9.27
2022-11-08T07:39:52.509Z,9.29
2022-11-08T07:42:19.237Z,9.31
2022-11-08T07:44:58.904Z,9.38
2022-11-08T07:47:25.579Z,9.57
2022-11-08T07:49:52.188Z,9.70
2022-11-08T07:52:18.875Z,9.72
2022-11-08T07:54:45.458Z,9.58
2022-11-08T07:57:12.279Z,9.51
2022-11-08T07:59:38.890Z,9.52
2022-11-08T08:02:05.586Z,9.82
2022-11-08T08:04:32.761Z,10.13
2022-11-08T08:06:59.330Z,10.45
2022-11-08T08:09:25.934Z,10.66
2022-11-08T08:11:52.533Z,10.69
2022-11-08T08:14:19.213Z,10.81
2022-11-08T08:16:45.802Z,11.03
2022-11-08T08:19:12.413Z,11.21
2022-11-08T08:21:39.112Z,11.28
2022-11-08T08:24:06.014Z,10.98
2022-11-08T08:26:32.607Z,11.00
2022-11-08T08:28:59.255Z,11.08
2022-11-08T08:31:25.912Z,11.46
2022-11-08T08:33:52.520Z,11.52
2022-11-08T08:36:19.105Z,11.39
2022-11-08T08:38:45.700Z,11.34
2022-11-08T08:41:12.291Z,11.64
2022-11-08T08:43:38.948Z,11.73
2022-11-08T08:46:06.469Z,12.00
2022-11-08T08:48:33.672Z,11.99
2022-11-08T08:51:00.317Z,12.05
2022-11-08T08:53:26.915Z,11.90
2022-11-08T08:55:53.624Z,11.84
2022-11-08T08:58:21.042Z,11.95
2022-11-08T09:03:35.548Z,11.88
2022-11-08T09:06:02.684Z,12.05
2022-11-08T09:08:29.955Z,12.22
2022-11-08T09:10:58.107Z,12.37
2022-11-08T09:13:26.373Z,12.27
2022-11-08T09:15:53.578Z,12.04
2022-11-08T09:18:20.732Z,11.82
2022-11-08T09:20:47.627Z,11.91
2022-11-08T09:23:19.350Z,11.79
2022-11-08T09:25:46.239Z,11.89
2022-11-08T09:28:12.848Z,12.14
2022-11-08T09:30:39.514Z,12.58
2022-11-08T09:33:07.275Z,12.94
2022-11-08T09:35:34.158Z,13.19
2022-11-08T09:38:00.760Z,13.06
2022-11-08T09:41:01.207Z,12.84
2022-11-08T09:43:52.946Z,12.76
2022-11-08T09:46:39.478Z,12.69
2022-11-08T09:49:15.213Z,12.66
2022-11-08T09:51:42.227Z,12.60
2022-11-08T09:54:26.208Z,12.60
2022-11-08T09:56:55.433Z,12.58
2022-11-08T09:59:36.243Z,12.46
2022-11-08T10:02:03.533Z,12.61
2022-11-08T10:04:32.945Z,12.73
2022-11-08T10:07:41.556Z,12.74
2022-11-08T10:10:17.015Z,12.77
2022-11-08T10:12:43.885Z,12.73
2022-11-08T10:15:36.843Z,12.54
2022-11-08T10:18:22.263Z,12.48
2022-11-08T10:20:57.303Z,12.34
2022-11-08T10:23:43.922Z,12.21
2022-11-08T10:26:21.631Z,12.18
2022-11-08T10:29:03.195Z,11.96
2022-11-08T10:31:35.147Z,11.91
2022-11-08T10:34:09.257Z,11.93
2022-11-08T10:36:43.565Z,12.02
2022-11-08T10:39:14.211Z,12.07
2022-11-08T10:42:02.237Z,12.07
2022-11-08T10:44:29.351Z,12.10
2022-11-08T10:46:55.899Z,12.14
2022-11-08T10:49:34.386Z,12.22
2022-11-08T10:52:13.574Z,12.19
2022-11-08T10:54:40.129Z,12.24
2022-11-08T10:57:07.372Z,12.33
2022-11-08T10:59:33.992Z,12.36
2022-11-08T11:02:00.894Z,12.41
2022-11-08T11:04:33.066Z,12.44
2022-11-08T11:07:23.752Z,12.51
2022-11-08T11:09:50.450Z,12.48
2022-11-08T11:12:17.024Z,12.43
2022-11-08T11:14:43.635Z,12.34
2022-11-08T11:17:18.596Z,12.44
2022-11-08T11:19:54.860Z,12.66
2022-11-08T11:22:31.358Z,12.81
2022-11-08T11:25:12.766Z,12.94
2022-11-08T11:27:41.623Z,13.26
2022-11-08T11:30:28.181Z,13.17
2022-11-08T11:33:21.502Z,13.39
2022-11-08T11:35:53.134Z,13.67
2022-11-08T11:38:29.018Z,13.92
2022-11-08T11:41:00.806Z,13.75
2022-11-08T11:43:38.183Z,13.67
2022-11-08T11:46:23.471Z,13.78
2022-11-08T11:49:00.823Z,13.75
2022-11-08T11:51:30.034Z,13.92
2022-11-08T11:53:58.254Z,14.17
2022-11-08T11:56:27.593Z,14.19
2022-11-08T11:58:56.978Z,14.28
2022-11-08T12:01:31.653Z,14.39
2022-11-08T12:04:21.631Z,14.51
2022-11-08T12:07:18.320Z,14.73
2022-11-08T12:10:00.030Z,14.58
2022-11-08T12:12:33.024Z,14.59
2022-11-08T12:15:24.747Z,14.60
2022-11-08T12:18:42.070Z,14.73
2022-11-08T12:21:14.932Z,14.76
2022-11-08T12:23:52.311Z,15.03
2022-11-08T12:26:40.216Z,15.06
2022-11-08T12:29:22.703Z,15.28
2022-11-08T12:32:27.521Z,15.23
2022-11-08T12:35:19.634Z,15.08
2022-11-08T12:38:12.586Z,15.06
2022-11-08T12:40:44.905Z,14.98
2022-11-08T12:43:41.890Z,14.90
2022-11-08T12:46:13.099Z,15.15
2022-11-08T12:49:16.297Z,15.02
2022-11-08T12:52:01.542Z,14.93
2022-11-08T12:54:54.363Z,14.81
2022-11-08T12:57:27.571Z,14.61
2022-11-08T13:00:14.592Z,14.58
2022-11-08T13:02:43.342Z,14.65
2022-11-08T13:05:20.939Z,14.65
2022-11-08T13:07:57.569Z,14.62
2022-11-08T13:10:27.018Z,14.53
2022-11-08T13:13:15.832Z,14.54
2022-11-08T13:16:07.589Z,14.63
2022-11-08T13:18:36.071Z,14.73
2022-11-08T13:21:28.347Z,14.76
2022-11-08T13:24:42.964Z,14.83
2022-11-08T13:27:30.245Z,14.95
2022-11-08T13:30:02.646Z,14.98
2022-11-08T13:32:54.218Z,14.83
2022-11-08T13:35:48.322Z,14.47
2022-11-08T13:38:30.921Z,14.41
2022-11-08T13:41:09.798Z,14.38
2022-11-08T13:43:36.912Z,14.33
2022-11-08T13:46:27.902Z,14.18
2022-11-08T13:48:57.524Z,14.16
2022-11-08T13:51:32.556Z,14.09
2022-11-08T13:54:01.903Z,14.08
2022-11-08T13:56:47.725Z,14.19
2022-11-08T13:59:29.242Z,14.22
2022-11-08T14:01:59.098Z,14.29
2022-11-08T14:04:27.208Z,14.32
2022-11-08T14:07:01.312Z,14.34
2022-11-08T14:09:33.450Z,14.33
2022-11-08T14:12:28.687Z,14.38
2022-11-08T14:15:01.079Z,14.46
2022-11-08T14:17:33.601Z,14.52
2022-11-08T14:20:35.573Z,14.58
2022-11-08T14:23:12.140Z,14.62
2022-11-08T14:25:39.744Z,14.75
2022-11-08T14:28:24.097Z,14.83
2022-11-08T14:30:51.170Z,14.80
2022-11-08T14:33:19.661Z,14.83
2022-11-08T14:35:53.339Z,14.79
2022-11-08T14:38:20.134Z,14.77
2022-11-08T14:41:01.387Z,14.72
2022-11-08T14:43:29.475Z,14.60
2022-11-08T14:45:58.228Z,14.57
2022-11-08T14:48:29.879Z,14.50
2022-11-08T14:51:05.534Z,14.38
2022-11-08T14:53:34.401Z,14.27
2022-11-08T14:56:21.931Z,14.24
2022-11-08T14:58:50.283Z,14.15
2022-11-08T15:01:28.023Z,14.19
2022-11-08T15:04:20.463Z,14.16
2022-11-08T15:07:09.370Z,14.18
2022-11-08T15:09:36.311Z,14.09
2022-11-08T15:12:05.741Z,14.03
2022-11-08T15:14:50.023Z,13.96
2022-11-08T15:18:05.208Z,13.89
2022-11-08T15:20:31.951Z,13.84
2022-11-08T15:22:58.551Z,13.74
2022-11-08T15:25:35.049Z,13.71
2022-11-08T15:28:21.870Z,13.59
2022-11-08T15:30:56.340Z,13.49
2022-11-08T15:33:26.046Z,13.39
2022-11-08T15:35:52.915Z,13.34
2022-11-08T15:38:19.914Z,13.32
2022-11-08T15:40:52.199Z,13.22
2022-11-08T15:43:45.253Z,13.12
2022-11-08T15:46:28.037Z,13.10
2022-11-08T15:48:56.488Z,12.97
2022-11-08T15:51:23.071Z,12.87
2022-11-08T15:53:49.649Z,12.79
2022-11-08T15:56:16.587Z,12.83
2022-11-08T15:58:43.209Z,12.83
2022-11-08T16:01:20.236Z,12.76
2022-11-08T16:03:48.446Z,12.70
2022-11-08T16:06:15.527Z,12.68
2022-11-08T16:08:42.199Z,12.67
2022-11-08T16:11:18.575Z,12.70
2022-11-08T16:13:45.331Z,12.72
2022-11-08T16:16:15.193Z,12.63
2022-11-08T16:18:42.280Z,12.63
2022-11-08T16:21:13.718Z,12.58
2022-11-08T16:23:41.601Z,12.55
2022-11-08T16:26:15.983Z,12.50
2022-11-08T16:28:43.071Z,12.42
2022-11-08T16:31:18.066Z,12.43
2022-11-08T16:33:46.019Z,12.40
2022-11-08T16:36:18.496Z,12.34
2022-11-08T16:38:56.010Z,12.33
2022-11-08T16:41:24.157Z,12.40
2022-11-08T16:43:51.086Z,12.47
2022-11-08T16:46:21.500Z,12.44
2022-11-08T16:48:51.443Z,12.44
2022-11-08T16:51:22.409Z,12.37
2022-11-08T16:53:49.660Z,12.38
2022-11-08T16:56:16.347Z,12.34
2022-11-08T16:58:43.638Z,12.42
2022-11-08T17:01:17.273Z,12.42
2022-11-08T17:03:43.962Z,12.40
2022-11-08T17:06:15.748Z,12.38
2022-11-08T17:08:42.386Z,12.35
2022-11-08T17:11:15.881Z,12.36
2022-11-08T17:13:42.501Z,12.34
2022-11-08T17:16:11.468Z,12.34
2022-11-08T17:18:38.659Z,12.33
2022-11-08T17:21:37.764Z,12.31
2022-11-08T17:23:57.528Z,12.26
2022-11-08T17:26:24.155Z,12.22
2022-11-08T17:28:55.236Z,12.21
2022-11-08T17:31:21.845Z,12.23
2022-11-08T17:33:48.459Z,12.22
2022-11-08T17:36:15.346Z,12.16
2022-11-08T17:38:42.580Z,12.13
2022-11-08T17:41:13.521Z,12.13
2022-11-08T17:43:41.030Z,12.06
2022-11-08T17:46:08.475Z,12.07
2022-11-08T17:48:35.221Z,12.10
2022-11-08T17:51:01.868Z,12.14
2022-11-08T17:53:28.769Z,12.10
2022-11-08T17:56:00.943Z,12.11
2022-11-08T17:58:28.074Z,12.12
2022-11-08T18:00:57.314Z,12.08
2022-11-08T18:03:25.529Z,12.11
2022-11-08T18:06:21.866Z,12.13
2022-11-08T18:08:48.470Z,12.19
2022-11-08T18:11:15.243Z,12.14
2022-11-08T18:13:42.226Z,12.15
2022-11-08T18:16:17.621Z,12.13
2022-11-08T18:18:46.315Z,12.12
2022-11-08T18:21:13.814Z,12.13
2022-11-08T18:23:41.936Z,12.11
2022-11-08T18:26:09.655Z,12.11
2022-11-08T18:28:37.486Z,12.10
2022-11-08T18:31:06.109Z,12.08
2022-11-08T18:33:32.951Z,12.13
2022-11-08T18:36:20.477Z,12.15
2022-11-08T18:38:49.066Z,12.15
2022-11-08T18:41:22.154Z,12.22
2022-11-08T18:43:49.071Z,12.26
2022-11-08T18:46:18.993Z,12.25
2022-11-08T18:48:45.654Z,12.32
2022-11-08T18:51:14.480Z,12.32
2022-11-08T18:53:42.119Z,12.33
2022-11-08T18:56:10.016Z,12.30
2022-11-08T18:58:36.593Z,12.30
2022-11-08T19:01:03.795Z,12.34
2022-11-08T19:03:30.973Z,12.40
2022-11-08T19:05:57.633Z,12.43
2022-11-08T19:08:26.902Z,12.42
2022-11-08T19:10:58.997Z,12.41
2022-11-08T19:13:27.441Z,12.40
2022-11-08T19:16:00.850Z,12.43
2022-11-08T19:18:28.773Z,12.45
2022-11-08T19:21:03.679Z,12.45
2022-11-08T19:23:30.520Z,12.46
2022-11-08T19:26:05.842Z,12.49
2022-11-08T19:28:35.332Z,12.51
2022-11-08T19:31:02.000Z,12.44
2022-11-08T19:33:30.552Z,12.45
2022-11-08T19:36:08.859Z,12.46
2022-11-08T19:38:36.953Z,12.51
2022-11-08T19:41:05.100Z,12.47
2022-11-08T19:43:34.512Z,12.47
2022-11-08T19:46:03.425Z,12.44
2022-11-08T19:48:33.686Z,12.50
2022-11-08T19:51:02.008Z,12.52
2022-11-08T19:53:29.083Z,12.46
2022-11-08T19:56:07.427Z,12.45
2022-11-08T19:58:35.901Z,12.44
2022-11-08T20:01:13.421Z,12.51
2022-11-08T20:03:40.120Z,12.52
2022-11-08T20:06:07.955Z,12.57
2022-11-08T20:08:35.035Z,12.60
2022-11-08T20:11:09.480Z,12.64
2022-11-08T20:13:36.042Z,12.61
2022-11-08T20:16:17.234Z,12.54
2022-11-08T20:18:44.347Z,12.49
2022-11-08T20:21:12.765Z,12.47
2022-11-08T20:23:42.426Z,12.47
2022-11-08T20:26:13.952Z,12.48
2022-11-08T20:28:41.870Z,12.51
2022-11-08T20:31:11.790Z,12.52
2022-11-08T20:33:39.637Z,12.50
2022-11-08T20:36:13.181Z,12.58
2022-11-08T20:38:40.482Z,12.62
2022-11-08T20:41:10.054Z,12.63
2022-11-08T20:43:41.508Z,12.67
2022-11-08T20:46:12.172Z,12.78
2022-11-08T20:48:42.961Z,12.85
2022-11-08T20:51:11.471Z,12.86
2022-11-08T20:53:38.673Z,12.72
2022-11-08T20:56:10.752Z,12.42
2022-11-08T20:58:37.510Z,12.30
2022-11-08T21:01:06.332Z,12.12
2022-11-08T21:03:33.150Z,11.89
2022-11-08T21:06:05.620Z,11.78
2022-11-08T21:11:20.852Z,11.58
2022-11-08T21:13:47.765Z,11.55
2022-11-08T21:16:38.614Z,11.55
2022-11-08T21:19:02.955Z,11.55
2022-11-08T21:21:29.772Z,11.54
2022-11-08T21:23:56.683Z,11.51
2022-11-08T21:26:23.626Z,11.51
2022-11-08T21:28:50.988Z,11.57
2022-11-08T21:31:17.618Z,11.57
2022-11-08T21:33:44.200Z,11.55
2022-11-08T21:36:10.926Z,11.52
2022-11-08T21:38:38.564Z,11.50
2022-11-08T21:41:07.571Z,11.40
2022-11-08T21:43:36.258Z,11.39
2022-11-08T21:46:13.303Z,11.39
2022-11-08T21:48:40.171Z,11.34
2022-11-08T21:51:06.756Z,11.37
2022-11-08T21:53:33.390Z,11.43
2022-11-08T21:55:59.983Z,11.48
2022-11-08T21:58:26.699Z,11.49
2022-11-08T22:00:53.526Z,11.43
2022-11-08T22:03:20.172Z,11.42
2022-11-08T22:05:47.334Z,11.40
2022-11-08T22:08:13.898Z,11.37
2022-11-08T22:10:40.561Z,11.29
2022-11-08T22:13:07.222Z,11.27
2022-11-08T22:15:33.782Z,11.24
2022-11-08T22:18:14.982Z,11.26
2022-11-08T22:21:06.615Z,11.30
2022-11-08T22:23:36.918Z,11.40
2022-11-08T22:26:03.854Z,11.42
2022-11-08T22:28:30.579Z,11.46
2022-11-08T22:30:57.152Z,11.47
2022-11-08T22:33:23.792Z,11.45
2022-11-08T22:35:50.371Z,11.42
2022-11-08T22:38:17.502Z,11.43
2022-11-08T22:40:45.935Z,11.46
2022-11-08T22:43:12.615Z,11.51
2022-11-08T22:45:40.231Z,11.53
2022-11-08T22:48:08.260Z,11.49
2022-11-08T22:50:35.172Z,11.48
2022-11-08T22:53:01.822Z,11.45
2022-11-08T22:55:28.478Z,11.42
2022-11-08T22:57:55.354Z,11.42
2022-11-08T23:00:21.966Z,11.41
2022-11-08T23:02:48.643Z,11.39
2022-11-08T23:05:15.270Z,11.32
2022-11-08T23:07:41.868Z,11.35
2022-11-08T23:10:08.736Z,11.37
2022-11-08T23:12:53.956Z,11.39
2022-11-08T23:15:39.065Z,11.36
2022-11-08T23:18:05.652Z,11.38
2022-11-08T23:20:51.617Z,11.44
2022-11-08T23:23:36.618Z,11.50
2022-11-08T23:26:03.429Z,11.52
2022-11-08T23:28:49.407Z,11.58
2022-11-08T23:31:34.797Z,11.59
2022-11-08T23:34:02.938Z,11.53
2022-11-08T23:36:29.898Z,11.51
2022-11-08T23:38:57.734Z,11.56
2022-11-08T23:41:42.959Z,11.56
2022-11-08T23:44:25.072Z,11.57
2022-11-08T23:46:56.109Z,11.58
2022-11-08T23:49:22.754Z,11.58
2022-11-08T23:51:49.439Z,11.60
2022-11-08T23:54:16.152Z,11.62
2022-11-08T23:56:43.386Z,11.64
2022-11-08T23:59:11.018Z,11.67
